createdAt,value
2017-11-24T00:00:11.320Z,58.40
2017-11-24T00:02:37.603Z,57.90
2017-11-24T00:05:03.886Z,58.20
2017-11-24T00:07:30.987Z,58.50
2017-11-24T00:09:57.234Z,58.40
2017-11-24T00:12:23.493Z,57.80
2017-11-24T00:14:49.737Z,58.20
2017-11-24T00:17:16.063Z,58.60
2017-11-24T00:19:42.302Z,58.90
2017-11-24T00:22:08.567Z,57.90
2017-11-24T00:24:34.811Z,58.20
2017-11-24T00:27:01.054Z,58.30
2017-11-24T00:29:27.264Z,57.80
2017-11-24T00:31:54.271Z,58.20
2017-11-24T00:34:21.300Z,58.00
2017-11-24T00:36:47.562Z,57.40
2017-11-24T00:39:13.825Z,57.20
2017-11-24T00:41:40.074Z,57.10
2017-11-24T00:44:07.126Z,57.50
2017-11-24T00:46:33.514Z,57.40
2017-11-24T00:48:59.785Z,57.30
2017-11-24T00:51:26.388Z,57.20
2017-11-24T00:53:53.712Z,57.50
2017-11-24T00:56:19.965Z,56.80
2017-11-24T00:58:46.951Z,57.60
2017-11-24T01:01:14.459Z,57.40
2017-11-24T01:03:40.764Z,57.30
2017-11-24T01:06:07.022Z,57.40
2017-11-24T01:08:33.294Z,57.60
2017-11-24T01:10:59.549Z,57.10
2017-11-24T01:13:25.854Z,57.50
2017-11-24T01:15:52.768Z,57.00
2017-11-24T01:18:19.027Z,57.30
2017-11-24T01:20:46.026Z,56.70
2017-11-24T01:23:12.311Z,56.70
2017-11-24T01:25:39.308Z,56.80
2017-11-24T01:28:05.555Z,57.10
2017-11-24T01:30:31.813Z,57.10
2017-11-24T01:32:58.111Z,56.30
2017-11-24T01:35:24.401Z,56.40
2017-11-24T01:37:50.693Z,56.80
2017-11-24T01:40:17.000Z,56.30
2017-11-24T01:42:44.179Z,56.20
2017-11-24T01:45:11.426Z,56.80
2017-11-24T01:47:38.475Z,58.00
2017-11-24T01:50:04.808Z,57.90
2017-11-24T01:52:31.232Z,58.10
2017-11-24T01:54:57.491Z,58.30
2017-11-24T01:57:24.490Z,58.90
2017-11-24T01:59:51.503Z,60.30
2017-11-24T02:02:17.807Z,60.30
2017-11-24T02:04:44.253Z,60.30
2017-11-24T02:07:10.531Z,60.40
2017-11-24T02:09:36.843Z,61.30
2017-11-24T02:12:03.179Z,62.30
2017-11-24T02:14:29.572Z,63.30
2017-11-24T02:16:55.835Z,64.50
2017-11-24T02:19:22.100Z,65.30
2017-11-24T02:21:48.392Z,66.30
2017-11-24T02:24:14.809Z,66.50
2017-11-24T02:26:41.627Z,67.40
2017-11-24T02:29:08.049Z,67.70
2017-11-24T02:31:34.335Z,68.70
2017-11-24T02:34:01.319Z,69.70
2017-11-24T02:36:27.643Z,69.70
2017-11-24T02:38:53.959Z,70.80
2017-11-24T02:41:20.975Z,70.40
2017-11-24T02:43:47.259Z,70.40
2017-11-24T02:46:13.504Z,70.80
2017-11-24T02:48:39.751Z,71.20
2017-11-24T02:51:08.980Z,71.70
2017-11-24T02:53:35.256Z,71.80
2017-11-24T02:56:01.507Z,73.10
2017-11-24T02:58:27.939Z,72.60
2017-11-24T03:00:54.243Z,73.30
2017-11-24T03:03:20.530Z,73.50
2017-11-24T03:05:46.783Z,74.00
2017-11-24T03:08:13.038Z,74.50
2017-11-24T03:10:40.178Z,74.60
2017-11-24T03:13:06.444Z,74.50
2017-11-24T03:15:32.682Z,75.10
2017-11-24T03:17:59.027Z,75.00
2017-11-24T03:20:25.307Z,77.00
2017-11-24T03:22:52.618Z,76.90
2017-11-24T03:25:18.949Z,76.90
2017-11-24T03:27:45.257Z,77.00
2017-11-24T03:30:11.555Z,76.70
2017-11-24T03:32:38.180Z,76.80
2017-11-24T03:35:04.548Z,76.80
2017-11-24T03:37:30.810Z,76.80
2017-11-24T03:39:57.825Z,77.00
2017-11-24T03:42:24.151Z,77.00
2017-11-24T03:44:50.402Z,77.60
2017-11-24T03:47:16.654Z,76.90
2017-11-24T03:49:42.949Z,78.70
2017-11-24T03:52:10.239Z,76.90
2017-11-24T03:54:36.627Z,77.10
2017-11-24T03:57:03.676Z,76.90
2017-11-24T03:59:29.956Z,76.90
2017-11-24T04:01:56.973Z,77.00
2017-11-24T04:04:23.295Z,77.00
2017-11-24T04:06:50.577Z,77.30
2017-11-24T04:09:17.650Z,77.00
2017-11-24T04:11:43.990Z,77.30
2017-11-24T04:14:10.315Z,78.20
2017-11-24T04:16:37.281Z,76.90
2017-11-24T04:19:03.589Z,78.60
2017-11-24T04:21:29.855Z,79.00
2017-11-24T04:23:56.150Z,79.70
2017-11-24T04:26:22.528Z,81.20
2017-11-24T04:28:49.812Z,79.60
2017-11-24T04:31:16.335Z,79.00
2017-11-24T04:33:42.660Z,81.70
2017-11-24T04:36:09.700Z,86.40
2017-11-24T04:38:37.191Z,86.40
2017-11-24T04:41:03.674Z,86.40
2017-11-24T04:43:31.091Z,86.10
2017-11-24T04:45:57.459Z,83.20
2017-11-24T04:48:26.172Z,86.60
2017-11-24T04:50:52.442Z,86.50
2017-11-24T04:53:18.740Z,83.70
2017-11-24T04:55:46.757Z,82.10
2017-11-24T04:58:13.051Z,81.00
2017-11-24T05:00:40.051Z,80.00
2017-11-24T05:03:06.880Z,80.00
2017-11-24T05:05:33.144Z,79.50
2017-11-24T05:07:59.433Z,79.10
2017-11-24T05:10:25.715Z,80.00
2017-11-24T05:12:52.452Z,79.40
2017-11-24T05:15:19.537Z,79.60
2017-11-24T05:17:45.763Z,79.40
2017-11-24T05:20:12.040Z,79.40
2017-11-24T05:22:38.372Z,78.70
2017-11-24T05:25:04.621Z,80.80
2017-11-24T05:27:30.911Z,79.80
2017-11-24T05:29:57.211Z,80.10
2017-11-24T05:32:23.466Z,82.00
2017-11-24T05:34:50.511Z,79.90
2017-11-24T05:37:16.760Z,79.90
2017-11-24T05:39:43.024Z,79.90
2017-11-24T05:42:09.480Z,82.70
2017-11-24T05:44:35.854Z,86.80
2017-11-24T05:47:02.131Z,84.60
2017-11-24T05:49:28.403Z,83.90
2017-11-24T05:51:55.627Z,86.40
2017-11-24T05:54:21.908Z,87.00
2017-11-24T05:56:48.939Z,90.90
2017-11-24T05:59:15.207Z,90.90
2017-11-24T06:01:43.383Z,90.00
2017-11-24T06:04:09.725Z,90.00
2017-11-24T06:06:36.104Z,90.00
2017-11-24T06:09:02.435Z,89.00
2017-11-24T06:11:29.547Z,87.90
2017-11-24T06:13:55.840Z,89.10
2017-11-24T06:16:23.003Z,89.50
2017-11-24T06:18:50.093Z,90.20
2017-11-24T06:21:16.369Z,90.10
2017-11-24T06:23:46.546Z,90.60
2017-11-24T06:26:14.973Z,90.50
2017-11-24T06:28:42.036Z,90.30
2017-11-24T06:31:08.428Z,90.30
2017-11-24T06:33:35.647Z,89.90
2017-11-24T06:36:01.900Z,89.90
2017-11-24T06:38:28.170Z,90.80
2017-11-24T06:40:55.250Z,90.30
2017-11-24T06:43:22.250Z,90.50
2017-11-24T06:45:48.509Z,90.70
2017-11-24T06:48:16.239Z,90.60
2017-11-24T06:50:42.530Z,91.30
2017-11-24T06:53:08.794Z,90.30
2017-11-24T06:55:35.074Z,90.20
2017-11-24T06:58:01.415Z,90.30
2017-11-24T07:00:27.723Z,88.30
2017-11-24T07:02:53.993Z,90.00
2017-11-24T07:05:20.276Z,89.20
2017-11-24T07:07:46.735Z,88.80
2017-11-24T07:10:13.864Z,86.00
2017-11-24T07:12:44.643Z,86.10
2017-11-24T07:15:10.894Z,86.50
2017-11-24T07:17:37.179Z,85.80
2017-11-24T07:20:03.455Z,84.70
2017-11-24T07:22:29.827Z,83.80
2017-11-24T07:24:56.321Z,81.90
2017-11-24T07:27:22.651Z,85.10
2017-11-24T07:29:48.939Z,85.10
2017-11-24T07:32:15.207Z,86.20
2017-11-24T07:34:43.419Z,85.90
2017-11-24T07:37:09.711Z,83.90
2017-11-24T07:39:36.003Z,83.10
2017-11-24T07:42:02.420Z,83.40
2017-11-24T07:44:28.704Z,82.60
2017-11-24T07:46:55.015Z,82.80
2017-11-24T07:49:23.095Z,85.50
2017-11-24T07:51:49.436Z,85.50
2017-11-24T07:54:16.698Z,85.20
2017-11-24T07:56:42.991Z,84.50
2017-11-24T07:59:09.411Z,83.40
2017-11-24T08:01:36.889Z,82.90
2017-11-24T08:04:03.195Z,84.30
2017-11-24T08:06:30.191Z,86.90
2017-11-24T08:08:57.223Z,88.30
2017-11-24T08:11:23.557Z,88.30
2017-11-24T08:13:50.563Z,89.80
2017-11-24T08:16:17.599Z,88.00
2017-11-24T08:18:44.064Z,88.00
2017-11-24T08:21:10.359Z,89.30
2017-11-24T08:23:37.579Z,87.50
2017-11-24T08:26:04.014Z,89.50
2017-11-24T08:28:30.287Z,88.30
2017-11-24T08:30:56.672Z,89.20
2017-11-24T08:33:25.282Z,89.10
2017-11-24T08:35:52.371Z,87.90
2017-11-24T08:38:20.663Z,87.70
2017-11-24T08:40:47.075Z,87.20
2017-11-24T08:43:13.356Z,87.00
2017-11-24T08:45:39.666Z,85.70
2017-11-24T08:48:12.081Z,84.00
2017-11-24T08:50:38.364Z,84.70
2017-11-24T08:53:04.724Z,84.70
2017-11-24T08:55:31.344Z,85.00
2017-11-24T08:57:58.612Z,84.60
2017-11-24T09:00:25.695Z,84.80
2017-11-24T09:02:52.027Z,84.80
2017-11-24T09:05:18.813Z,85.30
2017-11-24T09:07:45.111Z,84.60
2017-11-24T09:10:11.590Z,83.90
2017-11-24T09:12:37.904Z,86.80
2017-11-24T09:15:04.271Z,86.00
2017-11-24T09:17:31.292Z,84.40
2017-11-24T09:19:57.546Z,84.40
2017-11-24T09:22:24.570Z,85.30
2017-11-24T09:24:50.871Z,85.30
2017-11-24T09:27:20.480Z,86.00
2017-11-24T09:29:46.758Z,86.80
2017-11-24T09:32:13.026Z,88.20
2017-11-24T09:34:39.282Z,84.20
2017-11-24T09:37:05.555Z,85.30
2017-11-24T09:39:31.877Z,85.00
2017-11-24T09:41:58.154Z,84.90
2017-11-24T09:44:34.394Z,85.60
2017-11-24T09:47:00.687Z,85.30
2017-11-24T09:49:27.018Z,85.30
2017-11-24T09:51:54.074Z,84.20
2017-11-24T09:54:20.338Z,84.20
2017-11-24T09:56:46.616Z,83.20
2017-11-24T09:59:12.927Z,84.20
2017-11-24T10:01:44.487Z,83.90
2017-11-24T10:04:10.779Z,84.60
2017-11-24T10:06:37.038Z,85.60
2017-11-24T10:09:03.272Z,84.70
2017-11-24T10:11:29.580Z,84.50
2017-11-24T10:13:56.619Z,85.90
2017-11-24T10:16:22.940Z,85.90
2017-11-24T10:18:55.653Z,84.50
2017-11-24T10:21:28.164Z,83.40
2017-11-24T10:23:54.409Z,84.20
2017-11-24T10:26:20.644Z,85.20
2017-11-24T10:28:46.919Z,85.90
2017-11-24T10:31:13.944Z,82.70
2017-11-24T10:33:41.857Z,82.10
2017-11-24T10:36:11.795Z,81.50
2017-11-24T10:38:38.176Z,81.00
2017-11-24T10:41:04.533Z,81.70
2017-11-24T10:43:30.787Z,83.00
2017-11-24T10:45:57.112Z,80.90
2017-11-24T10:48:23.415Z,79.50
2017-11-24T10:50:49.756Z,79.70
2017-11-24T10:55:47.587Z,79.00
2017-11-24T10:58:13.842Z,77.70
2017-11-24T11:00:40.156Z,79.40
2017-11-24T11:03:06.483Z,78.00
2017-11-24T11:05:33.626Z,79.20
2017-11-24T11:08:00.165Z,79.20
2017-11-24T11:10:31.108Z,78.00
2017-11-24T11:12:58.206Z,78.00
2017-11-24T11:15:24.523Z,77.90
2017-11-24T11:17:52.886Z,79.20
2017-11-24T11:20:19.163Z,79.00
2017-11-24T11:22:45.424Z,78.70
2017-11-24T11:25:11.695Z,80.10
2017-11-24T11:27:37.989Z,79.90
2017-11-24T11:30:05.683Z,82.00
2017-11-24T11:32:32.256Z,81.80
2017-11-24T11:34:58.588Z,79.40
2017-11-24T11:37:24.986Z,79.50
2017-11-24T11:39:52.595Z,78.80
2017-11-24T11:42:18.876Z,78.30
2017-11-24T11:44:45.109Z,78.80
2017-11-24T11:47:11.356Z,77.00
2017-11-24T11:49:41.226Z,78.00
2017-11-24T11:52:08.232Z,79.20
2017-11-24T11:54:35.649Z,79.20
2017-11-24T11:57:02.088Z,79.30
2017-11-24T11:59:28.569Z,78.10
2017-11-24T12:01:54.887Z,79.40
2017-11-24T12:06:54.585Z,80.30
2017-11-24T12:09:20.947Z,79.80
2017-11-24T12:11:47.183Z,81.20
2017-11-24T12:14:14.868Z,82.80
2017-11-24T12:16:41.223Z,80.50
2017-11-24T12:19:07.498Z,79.70
2017-11-24T12:21:41.737Z,79.40
2017-11-24T12:24:08.071Z,79.30
2017-11-24T12:26:34.338Z,79.20
2017-11-24T12:29:00.604Z,78.10
2017-11-24T12:31:26.900Z,78.50
2017-11-24T12:33:53.183Z,80.40
2017-11-24T12:36:24.745Z,78.90
2017-11-24T12:38:51.836Z,76.80
2017-11-24T12:41:18.106Z,77.20
2017-11-24T12:43:44.380Z,77.20
2017-11-24T12:46:10.709Z,76.10
2017-11-24T12:48:36.988Z,77.10
2017-11-24T12:51:03.267Z,76.30
2017-11-24T12:53:30.257Z,76.50
2017-11-24T12:55:56.519Z,76.50
2017-11-24T12:58:23.500Z,75.30
2017-11-24T13:00:49.749Z,75.20
2017-11-24T13:03:15.998Z,76.70
2017-11-24T13:05:42.289Z,77.00
2017-11-24T13:08:08.551Z,76.60
2017-11-24T13:10:34.826Z,78.00
2017-11-24T13:13:01.080Z,77.40
2017-11-24T13:15:27.434Z,77.50
2017-11-24T13:17:53.674Z,77.10
2017-11-24T13:20:19.920Z,77.00
2017-11-24T13:22:46.230Z,76.30
2017-11-24T13:25:13.231Z,74.80
2017-11-24T13:27:39.539Z,74.70
2017-11-24T13:30:05.816Z,75.10
2017-11-24T13:32:32.820Z,74.00
2017-11-24T13:34:59.077Z,74.00
2017-11-24T13:37:25.351Z,73.70
2017-11-24T13:39:52.419Z,74.60
2017-11-24T13:42:18.692Z,74.50
2017-11-24T13:44:44.920Z,72.60
2017-11-24T13:47:12.065Z,67.90
2017-11-24T13:49:39.275Z,69.90
2017-11-24T13:52:05.667Z,69.70
2017-11-24T13:54:31.918Z,68.70
2017-11-24T13:56:58.921Z,69.10
2017-11-24T13:59:25.196Z,69.00
2017-11-24T14:01:51.427Z,66.50
2017-11-24T14:04:17.671Z,65.90
2017-11-24T14:06:43.910Z,66.50
2017-11-24T14:09:09.968Z,67.10
2017-11-24T14:11:36.775Z,68.40
2017-11-24T14:14:02.865Z,69.00
2017-11-24T14:16:28.935Z,68.70
2017-11-24T14:18:55.011Z,69.50
2017-11-24T14:21:21.091Z,68.90
2017-11-24T14:23:47.883Z,70.20
2017-11-24T14:26:14.711Z,70.50
2017-11-24T14:28:40.806Z,70.50
2017-11-24T14:31:07.626Z,72.20
2017-11-24T14:33:33.704Z,73.00
2017-11-24T14:35:59.775Z,71.90
2017-11-24T14:38:26.573Z,70.80
2017-11-24T14:40:52.643Z,70.00
2017-11-24T14:43:19.447Z,71.60
2017-11-24T14:45:45.533Z,71.50
2017-11-24T14:48:11.610Z,71.00
2017-11-24T14:50:37.693Z,71.20
2017-11-24T14:53:03.779Z,70.90
2017-11-24T14:55:29.841Z,72.40
2017-11-24T14:57:55.925Z,72.20
2017-11-24T15:00:22.775Z,70.60
2017-11-24T15:02:48.849Z,71.00
2017-11-24T15:05:14.903Z,70.70
2017-11-24T15:07:41.172Z,71.50
2017-11-24T15:10:07.299Z,71.90
2017-11-24T15:12:33.354Z,72.20
2017-11-24T15:14:59.416Z,70.90
2017-11-24T15:17:26.342Z,72.00
2017-11-24T15:19:52.508Z,71.90
2017-11-24T15:22:18.635Z,69.80
2017-11-24T15:24:44.707Z,71.90
2017-11-24T15:27:10.823Z,72.60
2017-11-24T15:29:37.023Z,72.40
2017-11-24T15:32:03.116Z,73.00
2017-11-24T15:34:29.931Z,72.10
2017-11-24T15:36:56.010Z,72.10
2017-11-24T15:39:22.087Z,70.80
2017-11-24T15:41:48.156Z,71.30
2017-11-24T15:44:14.243Z,69.90
2017-11-24T15:46:40.313Z,70.80
2017-11-24T15:49:06.377Z,70.10
2017-11-24T15:51:32.472Z,70.50
2017-11-24T15:53:58.546Z,70.20
2017-11-24T15:56:25.331Z,70.90
2017-11-24T15:58:51.420Z,70.90
2017-11-24T16:01:17.484Z,71.00
2017-11-24T16:03:43.547Z,71.80
2017-11-24T16:06:10.424Z,70.20
2017-11-24T16:08:36.535Z,70.20
2017-11-24T16:11:02.592Z,70.00
2017-11-24T16:13:28.680Z,70.60
2017-11-24T16:15:54.828Z,70.60
2017-11-24T16:18:20.902Z,71.60
2017-11-24T16:20:46.954Z,71.60
2017-11-24T16:23:13.028Z,73.00
2017-11-24T16:25:39.087Z,72.50
2017-11-24T16:28:05.895Z,72.50
2017-11-24T16:30:31.977Z,72.50
2017-11-24T16:32:58.051Z,71.30
2017-11-24T16:35:24.130Z,71.10
2017-11-24T16:37:50.186Z,70.70
2017-11-24T16:40:16.374Z,70.70
2017-11-24T16:42:42.438Z,70.60
2017-11-24T16:45:08.566Z,70.60
2017-11-24T16:47:34.668Z,72.60
2017-11-24T16:50:00.803Z,72.40
2017-11-24T16:52:27.654Z,70.40
2017-11-24T16:54:54.606Z,72.20
2017-11-24T16:57:20.704Z,72.80
2017-11-24T16:59:46.797Z,72.60
2017-11-24T17:02:13.783Z,72.20
2017-11-24T17:04:40.091Z,72.20
2017-11-24T17:07:06.345Z,72.60
2017-11-24T17:09:32.651Z,72.50
2017-11-24T17:12:00.455Z,71.70
2017-11-24T17:14:27.538Z,71.70
2017-11-24T17:16:53.686Z,71.60
2017-11-24T17:19:19.748Z,71.70
2017-11-24T17:21:46.664Z,72.00
2017-11-24T17:24:12.809Z,71.90
2017-11-24T17:26:39.684Z,74.80
2017-11-24T17:29:05.843Z,74.80
2017-11-24T17:31:31.953Z,74.20
2017-11-24T17:33:58.024Z,72.70
2017-11-24T17:36:24.102Z,73.40
2017-11-24T17:38:50.427Z,73.70
2017-11-24T17:41:16.749Z,73.50
2017-11-24T17:43:43.096Z,74.00
2017-11-24T17:46:09.559Z,74.80
2017-11-24T17:48:35.875Z,73.80
2017-11-24T17:51:03.519Z,74.30
2017-11-24T17:53:29.851Z,74.10
2017-11-24T17:55:56.272Z,73.30
2017-11-24T17:58:22.572Z,72.80
2017-11-24T18:00:48.876Z,73.00
2017-11-24T18:03:15.140Z,72.60
2017-11-24T18:05:41.421Z,74.40
2017-11-24T18:08:07.738Z,74.40
2017-11-24T18:10:34.018Z,73.40
2017-11-24T18:13:00.345Z,73.00
2017-11-24T18:15:26.652Z,72.50
2017-11-24T18:17:52.939Z,72.50
2017-11-24T18:20:19.226Z,72.20
2017-11-24T18:22:45.535Z,72.40
2017-11-24T18:25:11.809Z,72.80
2017-11-24T18:27:38.092Z,72.40
2017-11-24T18:30:04.377Z,72.20
2017-11-24T18:32:30.753Z,70.90
2017-11-24T18:34:58.163Z,71.20
2017-11-24T18:37:24.452Z,71.20
2017-11-24T18:39:50.742Z,71.40
2017-11-24T18:42:17.060Z,71.60
2017-11-24T18:44:43.305Z,71.80
2017-11-24T18:47:09.608Z,71.90
2017-11-24T18:49:35.885Z,71.90
2017-11-24T18:52:02.191Z,72.00
2017-11-24T18:54:28.481Z,71.80
2017-11-24T18:56:54.783Z,71.40
2017-11-24T18:59:21.790Z,71.70
2017-11-24T19:01:48.071Z,71.60
2017-11-24T19:04:14.381Z,71.80
2017-11-24T19:06:40.855Z,71.70
2017-11-24T19:09:07.136Z,71.80
2017-11-24T19:11:33.392Z,71.90
2017-11-24T19:13:59.738Z,71.60
2017-11-24T19:16:26.006Z,71.80
2017-11-24T19:18:52.291Z,71.50
2017-11-24T19:21:18.988Z,70.90
2017-11-24T19:23:45.339Z,71.20
2017-11-24T19:26:12.405Z,72.00
2017-11-24T19:28:38.687Z,71.90
2017-11-24T19:31:04.944Z,71.30
2017-11-24T19:33:31.957Z,71.30
2017-11-24T19:35:58.205Z,71.20
2017-11-24T19:38:24.509Z,71.20
2017-11-24T19:40:51.604Z,74.10
2017-11-24T19:43:17.871Z,74.00
2017-11-24T19:45:44.180Z,75.30
2017-11-24T19:48:10.462Z,73.90
2017-11-24T19:50:36.751Z,72.90
2017-11-24T19:53:03.164Z,74.00
2017-11-24T19:55:29.485Z,73.70
2017-11-24T19:57:55.782Z,73.40
2017-11-24T20:00:22.067Z,73.20
2017-11-24T20:02:48.327Z,72.80
2017-11-24T20:05:14.709Z,72.90
2017-11-24T20:07:40.992Z,73.10
2017-11-24T20:10:07.320Z,72.70
2017-11-24T20:12:34.354Z,72.90
2017-11-24T20:15:00.652Z,72.80
2017-11-24T20:17:26.939Z,72.70
2017-11-24T20:19:53.934Z,72.50
2017-11-24T20:22:20.264Z,72.70
2017-11-24T20:24:46.515Z,73.40
2017-11-24T20:27:12.792Z,73.90
2017-11-24T20:29:39.127Z,73.00
2017-11-24T20:32:05.438Z,73.20
2017-11-24T20:34:31.775Z,73.20
2017-11-24T20:36:58.065Z,72.90
2017-11-24T20:39:24.360Z,72.80
2017-11-24T20:41:50.629Z,72.50
2017-11-24T20:44:17.012Z,72.30
2017-11-24T20:46:43.257Z,72.30
2017-11-24T20:49:09.538Z,72.10
2017-11-24T20:51:36.519Z,72.70
2017-11-24T20:54:02.806Z,72.60
2017-11-24T20:56:29.802Z,72.60
2017-11-24T20:58:56.047Z,72.50
2017-11-24T21:01:23.079Z,72.30
2017-11-24T21:03:49.359Z,72.20
2017-11-24T21:06:15.647Z,72.30
2017-11-24T21:08:41.933Z,72.20
2017-11-24T21:11:09.022Z,72.00
2017-11-24T21:13:36.068Z,74.10
2017-11-24T21:16:02.350Z,74.00
2017-11-24T21:18:28.669Z,73.50
2017-11-24T21:20:54.959Z,73.20
2017-11-24T21:23:21.337Z,73.00
2017-11-24T21:25:47.626Z,73.00
2017-11-24T21:28:14.618Z,72.90
2017-11-24T21:30:40.914Z,72.80
2017-11-24T21:33:07.176Z,73.40
2017-11-24T21:35:34.197Z,72.70
2017-11-24T21:38:00.452Z,72.70
2017-11-24T21:40:26.763Z,72.50
2017-11-24T21:42:53.022Z,72.50
2017-11-24T21:45:19.261Z,73.20
2017-11-24T21:47:45.529Z,73.30
2017-11-24T21:50:12.508Z,72.80
2017-11-24T21:52:38.786Z,72.80
2017-11-24T21:55:05.812Z,72.70
2017-11-24T21:57:32.101Z,72.70
2017-11-24T21:59:58.339Z,72.00
2017-11-24T22:02:24.640Z,71.60
2017-11-24T22:04:50.974Z,71.90
2017-11-24T22:07:17.258Z,72.30
2017-11-24T22:09:43.530Z,72.10
2017-11-24T22:12:09.796Z,71.80
2017-11-24T22:14:36.046Z,71.70
2017-11-24T22:17:02.278Z,71.50
2017-11-24T22:19:28.563Z,72.20
2017-11-24T22:21:54.827Z,72.50
2017-11-24T22:24:21.845Z,71.90
2017-11-24T22:26:48.109Z,71.90
2017-11-24T22:29:14.477Z,72.00
2017-11-24T22:31:40.735Z,72.30
2017-11-24T22:34:07.004Z,72.50
2017-11-24T22:36:33.290Z,72.30
2017-11-24T22:38:59.569Z,72.00
2017-11-24T22:41:25.866Z,75.30
2017-11-24T22:43:52.111Z,74.00
2017-11-24T22:46:19.102Z,74.00
2017-11-24T22:48:45.371Z,74.00
2017-11-24T22:51:11.615Z,73.30
2017-11-24T22:53:38.671Z,73.50
2017-11-24T22:56:05.034Z,73.50
2017-11-24T22:58:31.273Z,73.70
2017-11-24T23:00:57.526Z,72.80
2017-11-24T23:03:23.902Z,73.40
2017-11-24T23:05:50.176Z,73.40
2017-11-24T23:08:17.191Z,74.10
2017-11-24T23:10:43.531Z,74.00
2017-11-24T23:13:09.856Z,74.20
2017-11-24T23:15:36.171Z,74.10
2017-11-24T23:18:02.491Z,73.90
2017-11-24T23:20:28.795Z,74.00
2017-11-24T23:22:55.167Z,74.00
2017-11-24T23:25:21.410Z,73.60
2017-11-24T23:27:47.701Z,73.90
2017-11-24T23:30:14.671Z,73.30
2017-11-24T23:32:40.927Z,73.20
2017-11-24T23:35:07.166Z,73.00
2017-11-24T23:37:34.261Z,72.80
2017-11-24T23:40:00.514Z,72.70
2017-11-24T23:42:26.753Z,72.70
2017-11-24T23:44:53.145Z,73.10
2017-11-24T23:47:19.404Z,73.90
2017-11-24T23:49:45.658Z,73.90
2017-11-24T23:52:12.649Z,73.20
2017-11-24T23:54:39.604Z,73.00
2017-11-24T23:57:05.907Z,73.00
2017-11-24T23:59:32.163Z,73.00
